Time,TemperatureF,DewpointF,PressureIn,WindDirection,WindDirectionDegrees,WindSpeedMPH,WindSpeedGustMPH,Humidity,HourlyPrecipIn,Conditions,Clouds,dailyrainin,SoftwareType,DateUTC
2013-02-15 00:21:00,46.0,25.0,30.18,North,0,0.0,2.0,43,0.00,,,-99.99,,2013-02-15 08:21:00,
2013-02-15 00:31:00,46.0,25.0,30.18,North,0,0.0,2.0,43,0.00,,,-99.99,,2013-02-15 08:31:00,
2013-02-15 00:41:00,46.0,25.0,30.18,North,0,0.0,2.0,43,0.00,,,-99.99,,2013-02-15 08:41:00,
2013-02-15 00:51:00,44.0,25.0,30.18,WNW,300,3.0,5.0,46,0.00,,,-99.99,,2013-02-15 08:51:00,
2013-02-15 01:21:00,44.0,25.0,30.18,WNW,300,3.0,5.0,46,0.00,,,-99.99,,2013-02-15 09:21:00,
2013-02-15 01:32:00,44.0,25.0,30.18,WNW,300,3.0,5.0,46,0.00,,,-99.99,,2013-02-15 09:32:00,
2013-02-15 01:41:00,44.0,25.0,30.18,WNW,300,3.0,5.0,46,0.00,,,-99.99,,2013-02-15 09:41:00,
2013-02-15 04:51:00,43.0,25.0,30.18,NNW,330,5.0,8.0,49,0.00,,,-99.99,,2013-02-15 12:51:00,
2013-02-15 05:21:00,43.0,25.0,30.18,NNW,330,5.0,8.0,49,0.00,,,-99.99,,2013-02-15 13:21:00,
2013-02-15 05:32:00,43.0,25.0,30.18,NNW,330,5.0,8.0,49,0.00,,,-99.99,,2013-02-15 13:32:00,
2013-02-15 05:41:00,43.0,25.0,30.18,NNW,330,5.0,8.0,49,0.00,,,-99.99,,2013-02-15 13:41:00,
2013-02-15 05:51:00,44.0,25.0,30.21,NNW,340,7.0,8.0,47,0.00,,,-99.99,,2013-02-15 13:51:00,
2013-02-15 06:21:00,44.0,25.0,30.21,NNW,340,7.0,8.0,47,0.00,,,-99.99,,2013-02-15 14:21:00,
2013-02-15 06:32:00,44.0,25.0,30.21,NNW,340,7.0,8.0,47,0.00,,,-99.99,,2013-02-15 14:32:00,
2013-02-15 06:41:00,44.0,25.0,30.21,NNW,340,7.0,8.0,47,0.00,,,-99.99,,2013-02-15 14:41:00,
2013-02-15 06:51:00,43.0,25.0,30.24,NNW,330,6.0,8.0,48,0.00,,,-99.99,,2013-02-15 14:51:00,
2013-02-15 07:21:00,43.0,25.0,30.24,NNW,330,6.0,8.0,48,0.00,,,-99.99,,2013-02-15 15:21:00,
2013-02-15 07:32:00,43.0,25.0,30.24,NNW,330,6.0,8.0,48,0.00,,,-99.99,,2013-02-15 15:32:00,
2013-02-15 07:41:00,43.0,25.0,30.24,NNW,330,6.0,8.0,48,0.00,,,-99.99,,2013-02-15 15:41:00,
2013-02-15 07:51:00,49.0,26.0,30.26,NNW,340,8.0,10.0,41,0.00,,,-99.99,,2013-02-15 15:51:00,
2013-02-15 08:22:00,49.0,26.0,30.26,NNW,340,8.0,10.0,41,0.00,,,-99.99,,2013-02-15 16:22:00,
2013-02-15 08:31:00,49.0,26.0,30.26,NNW,340,8.0,10.0,41,0.00,,,-99.99,,2013-02-15 16:31:00,
2013-02-15 08:42:00,49.0,26.0,30.26,NNW,340,8.0,10.0,41,0.00,,,-99.99,,2013-02-15 16:42:00,
2013-02-15 08:51:00,54.0,27.0,30.25,North,10,7.0,14.0,35,0.00,,,-99.99,,2013-02-15 16:51:00,
2013-02-15 09:21:00,54.0,27.0,30.25,North,10,7.0,14.0,35,0.00,,,-99.99,,2013-02-15 17:21:00,
2013-02-15 09:32:00,54.0,27.0,30.25,North,10,7.0,14.0,35,0.00,,,-99.99,,2013-02-15 17:32:00,
2013-02-15 09:41:00,54.0,27.0,30.25,North,10,7.0,14.0,35,0.00,,,-99.99,,2013-02-15 17:41:00,
2013-02-15 09:51:00,55.0,26.0,30.26,NNE,20,6.0,13.0,33,0.00,,,-99.99,,2013-02-15 17:51:00,
2013-02-15 10:21:00,55.0,26.0,30.26,NNE,20,6.0,13.0,33,0.00,,,-99.99,,2013-02-15 18:21:00,
2013-02-15 10:31:00,55.0,26.0,30.26,NNE,20,6.0,13.0,33,0.00,,,-99.99,,2013-02-15 18:31:00,
2013-02-15 10:41:00,55.0,26.0,30.26,NNE,20,6.0,13.0,33,0.00,,,-99.99,,2013-02-15 18:41:00,
2013-02-15 10:51:00,57.0,26.0,30.25,NE,50,11.0,16.0,30,0.00,,,-99.99,,2013-02-15 18:51:00,
2013-02-15 11:22:00,57.0,26.0,30.25,NE,50,11.0,16.0,30,0.00,,,-99.99,,2013-02-15 19:22:00,
2013-02-15 11:32:00,57.0,26.0,30.25,NE,50,11.0,16.0,30,0.00,,,-99.99,,2013-02-15 19:32:00,
2013-02-15 11:41:00,57.0,26.0,30.25,NE,50,11.0,16.0,30,0.00,,,-99.99,,2013-02-15 19:41:00,
2013-02-15 11:51:00,60.0,26.0,30.23,NNE,20,10.0,13.0,27,0.00,,,-99.99,,2013-02-15 19:51:00,
2013-02-15 12:21:00,60.0,26.0,30.23,NNE,20,10.0,13.0,27,0.00,,,-99.99,,2013-02-15 20:21:00,
2013-02-15 12:32:00,60.0,26.0,30.23,NNE,20,10.0,13.0,27,0.00,,,-99.99,,2013-02-15 20:32:00,
2013-02-15 12:42:00,60.0,26.0,30.23,NNE,20,10.0,13.0,27,0.00,,,-99.99,,2013-02-15 20:42:00,
2013-02-15 12:51:00,62.0,24.0,30.20,NE,50,11.0,18.0,23,0.00,,,-99.99,,2013-02-15 20:51:00,
2013-02-15 13:21:00,62.0,24.0,30.20,NE,50,11.0,18.0,23,0.00,,,-99.99,,2013-02-15 21:21:00,
2013-02-15 13:31:00,62.0,24.0,30.20,NE,50,11.0,18.0,23,0.00,,,-99.99,,2013-02-15 21:31:00,
2013-02-15 13:42:00,62.0,24.0,30.20,NE,50,11.0,18.0,23,0.00,,,-99.99,,2013-02-15 21:42:00,
2013-02-15 13:51:00,62.0,23.0,30.20,ENE,60,10.0,16.0,22,0.00,,,-99.99,,2013-02-15 21:51:00,
2013-02-15 14:21:00,62.0,23.0,30.20,ENE,60,10.0,16.0,22,0.00,,,-99.99,,2013-02-15 22:21:00,
2013-02-15 14:31:00,62.0,23.0,30.20,ENE,60,10.0,16.0,22,0.00,,,-99.99,,2013-02-15 22:31:00,
2013-02-15 14:41:00,62.0,23.0,30.20,ENE,60,10.0,16.0,22,0.00,,,-99.99,,2013-02-15 22:41:00,
2013-02-15 14:51:00,62.0,22.0,30.18,NE,50,9.0,18.0,21,0.00,,,-99.99,,2013-02-15 22:51:00,
2013-02-15 15:21:00,62.0,22.0,30.18,NE,50,9.0,18.0,21,0.00,,,-99.99,,2013-02-15 23:21:00,
2013-02-15 15:31:00,62.0,22.0,30.18,NE,50,9.0,18.0,21,0.00,,,-99.99,,2013-02-15 23:31:00,
2013-02-15 15:41:00,62.0,22.0,30.18,NE,50,9.0,18.0,21,0.00,,,-99.99,,2013-02-15 23:41:00,
2013-02-15 15:51:00,62.0,22.0,30.17,NE,50,11.0,17.0,21,0.00,,,-99.99,,2013-02-15 23:51:00,
2013-02-15 16:21:00,62.0,22.0,30.17,NE,50,11.0,17.0,21,0.00,,,-99.99,,2013-02-16 00:21:00,
2013-02-15 16:32:00,62.0,22.0,30.17,NE,50,11.0,17.0,21,0.00,,,-99.99,,2013-02-16 00:32:00,
2013-02-15 16:41:00,62.0,22.0,30.17,NE,50,11.0,17.0,21,0.00,,,-99.99,,2013-02-16 00:41:00,
2013-02-15 16:51:00,60.0,21.0,30.19,ENE,70,13.0,17.0,22,0.00,,,-99.99,,2013-02-16 00:51:00,
2013-02-15 17:21:00,60.0,21.0,30.19,ENE,70,13.0,17.0,22,0.00,,,-99.99,,2013-02-16 01:21:00,
2013-02-15 17:31:00,60.0,21.0,30.19,ENE,70,13.0,17.0,22,0.00,,,-99.99,,2013-02-16 01:31:00,
2013-02-15 17:41:00,60.0,21.0,30.19,ENE,70,13.0,17.0,22,0.00,,,-99.99,,2013-02-16 01:41:00,
2013-02-15 17:51:00,57.0,21.0,30.20,NE,50,4.0,12.0,24,0.00,,,-99.99,,2013-02-16 01:51:00,
2013-02-15 18:21:00,57.0,21.0,30.20,NE,50,4.0,12.0,24,0.00,,,-99.99,,2013-02-16 02:21:00,
2013-02-15 18:31:00,57.0,21.0,30.20,NE,50,4.0,12.0,24,0.00,,,-99.99,,2013-02-16 02:31:00,
2013-02-15 18:42:00,57.0,21.0,30.20,NE,50,4.0,12.0,24,0.00,,,-99.99,,2013-02-16 02:42:00,
2013-02-15 18:51:00,56.0,21.0,30.24,NE,40,12.0,13.0,25,0.00,,,-99.99,,2013-02-16 02:51:00,
2013-02-15 19:21:00,56.0,21.0,30.24,NE,40,12.0,13.0,25,0.00,,,-99.99,,2013-02-16 03:21:00,
2013-02-15 19:31:00,56.0,21.0,30.24,NE,40,12.0,13.0,25,0.00,,,-99.99,,2013-02-16 03:31:00,
2013-02-15 19:41:00,56.0,21.0,30.24,NE,40,12.0,13.0,25,0.00,,,-99.99,,2013-02-16 03:41:00,
2013-02-15 19:51:00,54.0,21.0,30.23,North,10,5.0,8.0,27,0.00,,,-99.99,,2013-02-16 03:51:00,
2013-02-15 20:21:00,54.0,21.0,30.23,North,10,5.0,8.0,27,0.00,,,-99.99,,2013-02-16 04:21:00,
2013-02-15 20:31:00,54.0,21.0,30.23,North,10,5.0,8.0,27,0.00,,,-99.99,,2013-02-16 04:31:00,
2013-02-15 20:41:00,54.0,21.0,30.23,North,10,5.0,8.0,27,0.00,,,-99.99,,2013-02-16 04:41:00,
2013-02-15 20:51:00,50.0,20.0,30.24,North,360,2.0,6.0,30,0.00,,,-99.99,,2013-02-16 04:51:00,
2013-02-15 21:21:00,50.0,20.0,30.24,North,360,2.0,6.0,30,0.00,,,-99.99,,2013-02-16 05:21:00,
2013-02-15 21:31:00,50.0,20.0,30.24,North,360,2.0,6.0,30,0.00,,,-99.99,,2013-02-16 05:31:00,
2013-02-15 21:42:00,50.0,20.0,30.24,North,360,2.0,6.0,30,0.00,,,-99.99,,2013-02-16 05:42:00,
2013-02-15 21:51:00,48.0,20.0,30.26,WNW,300,2.0,6.0,33,0.00,,,-99.99,,2013-02-16 05:51:00,
2013-02-15 22:21:00,48.0,20.0,30.26,WNW,300,2.0,6.0,33,0.00,,,-99.99,,2013-02-16 06:21:00,
2013-02-15 22:32:00,48.0,20.0,30.26,WNW,300,2.0,6.0,33,0.00,,,-99.99,,2013-02-16 06:32:00,
2013-02-15 22:42:00,48.0,20.0,30.26,WNW,300,2.0,6.0,33,0.00,,,-99.99,,2013-02-16 06:42:00,
2013-02-15 22:51:00,46.0,19.0,30.26,North,0,0.0,3.0,34,0.00,,,-99.99,,2013-02-16 06:51:00,
2013-02-15 23:21:00,46.0,19.0,30.26,North,0,0.0,3.0,34,0.00,,,-99.99,,2013-02-16 07:21:00,
2013-02-15 23:31:00,46.0,19.0,30.26,North,0,0.0,3.0,34,0.00,,,-99.99,,2013-02-16 07:31:00,
2013-02-15 23:42:00,46.0,19.0,30.26,North,0,0.0,3.0,34,0.00,,,-99.99,,2013-02-16 07:42:00,
2013-02-15 23:51:00,45.0,20.0,30.25,North,0,0.0,2.0,36,0.00,,,-99.99,,2013-02-16 07:51:00,